METAR Data
IDs: Format: Raw Decoded Include TAF

Data at: 1436 UTC 19 Feb 2020

KSYN 191435Z AUTO 19003KT 10SM OVC095 M19/M22 A3065 RMK AO2 T11881217
KSYN 191415Z AUTO 00000KT 10SM BKN095 M20/M22 A3065 RMK AO2 T11971225
KSYN 191356Z AUTO 00000KT 10SM BKN095 M20/M23 A3064 RMK AO2 T11981226
KSYN 191355Z AUTO 00000KT 10SM BKN095 M20/M22 A3064 RMK AO2 T11981225
KSYN 191336Z AUTO 22003KT 10SM SCT095 M19/M22 A3063 RMK AO2 T11951221
KSYN 191335Z AUTO 21003KT 10SM SCT095 M19/M22 A3063 RMK AO2 T11951221
KSYN 191316Z AUTO 00000KT 10SM CLR M20/M22 A3063 RMK AO2 T11971224
KSYN 191315Z AUTO 00000KT 10SM CLR M20/M22 A3063 RMK AO2 T11981224
KSYN 191255Z AUTO 27004KT 10SM CLR M18/M22 A3062 RMK AO2 T11851217
KSYN 191235Z AUTO 28003KT 10SM SCT090 M18/M21 A3061 RMK AO2 T11821215
KSYN 191215Z AUTO 26004KT 10SM BKN090 M17/M21 A3061 RMK AO2 T11751208
KSYN 191156Z AUTO 25004KT 10SM OVC090 M17/M21 A3061 RMK AO2 T11751208 11155 21200
KSYN 191155Z AUTO 25005KT 10SM OVC090 M17/M21 A3061 RMK AO2 T11751208 11155 21200
KSYN 191135Z AUTO 23003KT 10SM BKN090 M19/M21 A3061 RMK AO2 T11871215
KSYN 191115Z AUTO 22003KT 10SM OVC090 M18/M21 A3060 RMK AO2 T11831210
KSYN 191056Z AUTO 24003KT 10SM OVC090 M18/M21 A3059 RMK AO2 T11851214
KSYN 191055Z AUTO 24003KT 10SM OVC090 M18/M21 A3059 RMK AO2 T11851214
KSYN 191035Z AUTO 00000KT 10SM BKN090 M19/M21 A3059 RMK AO2 T11871214
KSYN 191016Z AUTO 22003KT 10SM BKN100 M19/M22 A3059 RMK AO2 T11911217
KSYN 191015Z AUTO 22003KT 10SM BKN100 M19/M22 A3058 RMK AO2 T11911218
KSYN 190956Z AUTO 22003KT 10SM BKN100 M19/M22 A3058 RMK AO2 T11941223
KSYN 190955Z AUTO 22003KT 10SM BKN100 M19/M22 A3058 RMK AO2 T11921222
KSYN 190935Z AUTO 00000KT 10SM SCT075 SCT085 OVC100 M19/M22 A3057 RMK AO2 T11931223
KSYN 190916Z AUTO 21003KT 10SM BKN090 OVC110 M18/M21 A3057 RMK AO2 T11851213
KSYN 190915Z AUTO 20003KT 10SM BKN090 OVC110 M19/M21 A3057 RMK AO2 T11861214
KSYN 190856Z AUTO 00000KT 10SM BKN090 M18/M22 A3056 RMK AO2 T11821216
KSYN 190855Z AUTO 00000KT 10SM BKN090 M18/M21 A3056 RMK AO2 T11811214
KSYN 190835Z AUTO 19003KT 10SM SCT090 SCT120 M19/M22 A3057 RMK AO2 T11941223
KSYN 190815Z AUTO 21003KT 10SM CLR M18/M22 A3057 RMK AO2 T11841216
KSYN 190756Z AUTO 00000KT 10SM CLR M17/M21 A3056 RMK AO2 T11751214
KSYN 190755Z AUTO 00000KT 10SM CLR M17/M21 A3056 RMK AO2 T11751215
KSYN 190735Z AUTO 27003KT 10SM CLR M18/M21 A3055 RMK AO2 T11801213
KSYN 190715Z AUTO 00000KT 10SM CLR M18/M22 A3055 RMK AO2 T11761216
KSYN 190655Z AUTO 27004KT 10SM CLR M16/M21 A3054 RMK AO2 T11651211
KSYN 190636Z AUTO 26004KT 10SM CLR M16/M21 A3053 RMK AO2 T11611208
KSYN 190635Z AUTO 26004KT 10SM CLR M16/M21 A3053 RMK AO2 T11611207
KSYN 190616Z AUTO 27005KT 10SM CLR M16/M20 A3052 RMK AO2 T11601205
KSYN 190615Z AUTO 27005KT 10SM CLR M16/M20 A3052 RMK AO2 T11601205
KSYN 190555Z AUTO 26003KT 10SM CLR M15/M20 A3051 RMK AO2 T11551202 11110 21171 410311171
KSYN 190535Z AUTO 27003KT 10SM CLR M15/M20 A3051 RMK AO2 T11521200
KSYN 190515Z AUTO 27004KT 10SM CLR M15/M20 A3051 RMK AO2 T11551200
KSYN 190456Z AUTO 27004KT 10SM CLR M15/M20 A3050 RMK AO2 T11531199
KSYN 190455Z AUTO 27004KT 10SM CLR M15/M20 A3050 RMK AO2 T11521199
KSYN 190435Z AUTO 29006KT 10SM CLR M17/M21 A3050 RMK AO2 T11701210
KSYN 190416Z AUTO 27006KT 10SM CLR M14/M19 A3049 RMK AO2 T11431192
KSYN 190415Z AUTO 27005KT 10SM CLR M14/M19 A3049 RMK AO2 T11431191
KSYN 190355Z AUTO 27005KT 10SM CLR M14/M19 A3048 RMK AO2 T11431190
KSYN 190335Z AUTO 27005KT 10SM CLR M14/M18 A3048 RMK AO2 T11421185
KSYN 190316Z AUTO 27006KT 10SM CLR M14/M18 A3046 RMK AO2 T11381181
KSYN 190315Z AUTO 27005KT 10SM CLR M14/M18 A3046 RMK AO2 T11391181
KSYN 190255Z AUTO 29008KT 10SM CLR M14/M18 A3045 RMK AO2 T11411182
KSYN 190235Z AUTO 27006KT 10SM CLR M14/M18 A3045 RMK AO2 T11381178
KSYN 190216Z AUTO 28009KT 10SM CLR M13/M17 A3044 RMK AO2 T11321175
KSYN 190215Z AUTO 28009KT 10SM CLR M13/M17 A3044 RMK AO2 T11321175
KSYN 190155Z AUTO 28008KT 10SM CLR M13/M17 A3044 RMK AO2 T11271170
KSYN 190135Z AUTO 27008KT 10SM CLR M12/M17 A3043 RMK AO2 T11231167
KSYN 190116Z AUTO 27007KT 10SM CLR M12/M16 A3042 RMK AO2 T11201165
KSYN 190115Z AUTO 27007KT 10SM CLR M12/M16 A3042 RMK AO2 T11201165
KSYN 190055Z AUTO 26005KT 10SM CLR M12/M16 A3042 RMK AO2 T11161165
KSYN 190036Z AUTO 28009KT 10SM CLR M12/M17 A3040 RMK AO2 T11221167
KSYN 190035Z AUTO 28009KT 10SM CLR M12/M17 A3040 RMK AO2 T11211167
KSYN 190016Z AUTO 28010KT 10SM CLR M11/M16 A3040 RMK AO2 T11121164
KSYN 190015Z AUTO 28010KT 10SM CLR M11/M16 A3040 RMK AO2 T11111163
KSYN 182355Z AUTO 28012KT 10SM CLR M11/M16 A3039 RMK AO2 T11091160 11060 21109
KSYN 182336Z AUTO 28012KT 10SM CLR M10/M15 A3038 RMK AO2 T11051155
KSYN 182335Z AUTO 28013KT 10SM CLR M10/M15 A3038 RMK AO2 T11041155
KSYN 182315Z AUTO 29012KT 10SM CLR M09/M15 A3037 RMK AO2 T10951150
KSYN 182256Z AUTO 30011KT 10SM CLR M09/M14 A3035 RMK AO2 T10901140
KSYN 182255Z AUTO 30011KT 10SM CLR M09/M14 A3035 RMK AO2 T10901140
KSYN 182235Z AUTO 29017KT 10SM CLR M09/M14 A3034 RMK AO2 T10861136
KSYN 182215Z AUTO 29016KT 10SM CLR M08/M13 A3033 RMK AO2 T10801131
KSYN 182156Z AUTO 29018G21KT 10SM CLR M07/M12 A3033 RMK AO2 T10751125
KSYN 182155Z AUTO 29016G20KT 10SM CLR M07/M12 A3033 RMK AO2 T10751125
KSYN 182136Z AUTO 29015KT 10SM CLR M07/M12 A3032 RMK AO2 T10721125
KSYN 182135Z AUTO 28014KT 10SM CLR M07/M12 A3032 RMK AO2 T10721124
KSYN 182115Z AUTO 28015G20KT 10SM CLR M07/M12 A3031 RMK AO2 T10701123
KSYN 182056Z AUTO 28015KT 10SM CLR M07/M12 A3031 RMK AO2 T10681124
KSYN 182055Z AUTO 28014KT 10SM CLR M07/M12 A3031 RMK AO2 T10681125